Flight Track Log - Related Links

Times and Time Zones

All times are in EDT time to prevent confusion due to time zone crossing. See the TYR188 flight status page for this flight to view local times or setup timezone preferences in your user account.

Time Position Orientation Groundspeed Altitude Reporting Facility
EDT Latitude Longitude Course Direction KTS MPH feet Rate Location/Type
Thu 01:26:00 PM 48.6645 9.7430 94° East  Level Estimated
Thu 01:27:00 PM 48.6578 9.8731 94° East  Level Estimated
Thu 01:28:00 PM 48.6510 10.0033 95° East  Level Estimated
Thu 01:29:00 PM 48.6440 10.1334 95° East  Level Estimated
Thu 01:30:00 PM 48.6368 10.2634 95° East  Level Estimated
Thu 01:31:00 PM 48.6296 10.3934 95° East  Level Estimated
Thu 01:32:00 PM 48.6221 10.5234 95° East  Level Estimated
Thu 01:33:00 PM 48.6146 10.6534 95° East  Level Estimated
Thu 01:34:00 PM 48.6068 10.7833 95° East  Level Estimated
Thu 01:35:00 PM 48.5989 10.9132 95° East  Level Estimated
Thu 01:36:00 PM 48.5909 11.0430 95° East  Level Estimated
Thu 01:37:00 PM 48.5828 11.1728 95° East  Level Estimated
Thu 01:38:00 PM 48.5745 11.3025 95° East  Level Estimated
Thu 01:39:00 PM 48.5660 11.4322 96° East  Level Estimated
Thu 01:40:00 PM 48.5574 11.5619 96° East  Level Estimated
Thu 01:41:00 PM 48.5486 11.6915 96° East  Level Estimated
Thu 01:42:00 PM 48.5397 11.8211 96° East  Level Estimated
Thu 01:43:00 PM 48.5307 11.9506 96° East  Level Estimated
Thu 01:44:00 PM 48.5215 12.0801 96° East  Level Estimated
Thu 01:45:00 PM 48.5122 12.2095 96° East  Level Estimated
Thu 01:46:00 PM 48.5027 12.3389 96° East  Level Estimated
Thu 01:47:00 PM 48.4931 12.4682 96° East  Level Estimated
Thu 01:48:00 PM 48.4833 12.5975 96° East  Level Estimated
Thu 01:49:00 PM 48.4734 12.7267 97° East  Level Estimated
Thu 01:50:00 PM 48.4634 12.8559 97° East  Level Estimated
Thu 01:51:00 PM 48.4532 12.9850 97° East  Level Estimated
Thu 01:52:00 PM 48.4428 13.1141 97° East  Level Estimated
Thu 01:53:00 PM 48.4324 13.2431 97° East  Level Estimated
Thu 01:54:00 PM 48.4217 13.3721 97° East  Level Estimated
Thu 01:55:00 PM 48.4110 13.5010 97° East  Level Estimated
Thu 01:56:00 PM 48.4000 13.6299 97° East  Level Estimated
Thu 01:57:00 PM 48.3890 13.7587 97° East  Level Estimated
Thu 01:58:00 PM 48.3778 13.8874 97° East  Level Estimated
Thu 01:59:00 PM 48.3664 14.0161 98° East  Level Estimated
Thu 02:00:00 PM 48.3549 14.1447 98° East  Level Estimated
Thu 02:01:00 PM 48.3433 14.2733 98° East  Level Estimated
Thu 02:02:00 PM 48.3315 14.4018 98° East  Level Estimated
Thu 02:03:00 PM 48.3196 14.5303 98° East  Level Estimated
Thu 02:04:00 PM 48.3075 14.6587 98° East  Level Estimated
Thu 02:05:00 PM 48.2953 14.7871 98° East  Level Estimated
Thu 02:06:00 PM 48.2830 14.9153 98° East  Level Estimated
Thu 02:07:00 PM 48.2705 15.0435 98° East  Level Estimated
Thu 02:08:00 PM 48.2578 15.1717 98° East  Level Estimated
Thu 02:09:00 PM 48.2450 15.2998 98° East  Level Estimated
Thu 02:10:00 PM 48.2321 15.4278 99° East  Level Estimated
Thu 02:11:00 PM 48.2191 15.5557 99° East  Level Estimated
Thu 02:12:00 PM 48.2059 15.6836 99° East  Level Estimated
Thu 02:13:00 PM 48.1925 15.8115 99° East  Level Estimated
Thu 02:14:00 PM 48.1790 15.9392 99° East  Level Estimated
Thu 02:15:00 PM 48.1654 16.0669 99° East  Level Estimated
Thu 02:16:00 PM 48.1516 16.1945 99° East  Level Estimated
Thu 02:17:00 PM 48.1377 16.3221 99° East  Level Estimated
Thu 02:18:00 PM 48.1237 16.4496 99° East  Level Estimated
Thu 02:19:00 PM 48.1103 16.5697 99° East  Level Estimated
Thu 02:20:00 PM 48.1103 16.5697 146° Southeast  Level Estimated
Thu 02:21:00 PM 48.1103 16.5697 146° Southeast  Level Estimated
Thu 02:22:00 PM 48.1103 16.5697 146° Southeast  Level Estimated
Thu 02:23:00 PM 48.1103 16.5697 146° Southeast  Level Estimated

Login

Don't have an account? Register now (free) for customized features, flight alerts, and more!